Latest Coastal Weather Observations for Onslow Airport

IDW60701

Issued at 1:32 pm WST Monday 27 April 2015 (issued every 10 minutes, with the page automatically refreshed every 10 minutes)

About coastal observations | Map of coastal stations | Coastal observations for WA | Marine services | Other Formats
Station Details ID: 005017 Name: ONSLOW AIRPORT Lat: -21.67 Lon: 115.11 Height: 10.5 m
Data from the previous 72 hours. | See also: Recent months at Onslow Airport
Date/Time
WST
Temp

°C
Wind Pressure Rain
since 9am
mm
Weather Cloud Vis
km
Sea
Height
m
Swell
Dir
 
Speed
knots
Gust
knots
hPa Trend Height
m
Period
s
Dir
27/01:30pm 29.8 ENE 11 14 1015.1 - 0.0 - - - - - - -
27/01:00pm 30.1 ENE 11 14 1015.5 - 0.0 - - - - - - -
27/12:30pm 29.3 ENE 13 16 1015.8 - 0.0 - - - - - - -
27/12:00pm 29.6 ENE 15 17 1016.2 - 0.0 - - - - - - -
27/11:30am 29.9 ENE 15 18 1016.5 - 0.0 - - - - - - -
27/11:00am 29.2 ENE 15 17 1016.8 - 0.0 - - - - - - -
27/10:30am 29.2 ENE 16 20 1017.0 - 0.0 - - - - - - -
27/10:00am 29.4 E 15 19 1017.1 - 0.0 - - - - - - -
27/09:30am 28.3 E 17 22 1017.1 - 0.0 - - - - - - -
27/09:00am 27.4 E 15 19 1017.2 - 0.0 - - - - - - -
27/08:30am 26.8 ESE 12 15 1016.9 - 0.0 - - - - - - -
27/08:00am 25.9 E 10 13 1016.8 - 0.0 - - - - - - -
27/07:30am 24.9 E 9 11 1016.7 - 0.0 - - - - - - -
27/07:00am 24.1 E 13 17 1016.2 - 0.0 - - - - - - -
27/06:30am 24.4 ENE 15 17 1016.0 - 0.0 - - - - - - -
27/06:00am 24.2 ENE 11 13 1015.9 - 0.0 - - - - - - -
27/05:30am 23.8 E 7 9 1015.6 - 0.0 - - - - - - -
27/05:00am 23.6 ESE 8 9 1015.5 - 0.0 - - - - - - -
27/04:30am 23.7 ESE 10 12 1015.2 - 0.0 - - - - - - -
27/04:00am 23.9 SE 11 13 1015.2 - 0.0 - - - - - - -
27/03:30am 23.7 ESE 12 13 1015.1 - 0.0 - - - - - - -
27/03:00am 23.9 ESE 10 11 1015.6 - 0.0 - - - - - - -
27/02:30am 24.0 SE 9 11 1015.6 - 0.0 - - - - - - -
27/02:00am 24.0 SE 10 12 1015.6 - 0.0 - - - - - - -
27/01:30am 23.7 SE 10 12 1015.8 - 0.0 - - - - - - -
27/01:00am 23.4 ESE 8 10 1016.0 - 0.0 - - - - - - -
27/12:30am 23.3 SE 9 11 1016.0 - 0.0 - - - - - - -
27/12:00am 23.0 SSE 7 8 1016.1 - 0.0 - - - - - - -
 
Date/Time
WST
Temp

°C
Wind Pressure Rain
since 9am
mm
Weather Cloud Vis
km
Sea
Height
m
Swell
Dir
 
Speed
knots
Gust
knots
hPa Trend Height
m
Period
s
Dir
26/11:30pm 23.1 E 4 5 1016.2 - 0.0 - - - - - - -
26/11:00pm 23.9 ESE 9 11 1016.0 - 0.0 - - - - - - -
26/10:30pm 24.0 ESE 11 13 1016.3 - 0.0 - - - - - - -
26/10:00pm 24.5 ESE 11 13 1016.7 - 0.0 - - - - - - -
26/09:30pm 25.0 ESE 9 12 1016.9 - 0.0 - - - - - - -
26/09:00pm 25.5 ESE 12 14 1016.9 - 0.0 - - - - - - -
26/08:30pm 25.2 E 10 12 1017.1 - 0.0 - - - - - - -
26/08:00pm 24.7 ESE 10 11 1017.0 - 0.0 - - - - - - -
26/07:30pm 25.9 SE 12 15 1016.8 - 0.0 - - - - - - -
26/07:00pm 25.6 SE 10 14 1016.4 - 0.0 - - - - - - -
26/06:30pm 24.8 E 10 11 1016.0 - 0.0 - - - - - - -
26/06:00pm 26.3 NE 6 7 1015.6 - 0.0 - - - - - - -
26/05:30pm 26.4 NNE 5 6 1015.1 - 0.0 - - - - - - -
26/05:00pm 26.8 NNE 6 7 1014.8 - 0.0 - - - - - - -
26/04:30pm 27.5 N 9 11 1014.4 - 0.0 - - - - - - -
26/04:00pm 28.6 N 9 11 1014.1 - 0.0 - - - - - - -
26/03:30pm 30.7 ENE 11 14 1013.8 - 0.0 - - - - - - -
26/03:00pm 30.3 ENE 11 15 1013.9 - 0.0 - - - - - - -
26/02:30pm 30.7 NE 13 16 1014.0 - 0.0 - - - - - - -
26/02:00pm 30.2 ENE 14 17 1014.0 - 0.0 - - - - - - -
26/01:30pm 29.9 ENE 17 22 1014.2 - 0.0 - - - - - - -
26/01:00pm 30.9 NE 14 17 1014.5 - 0.0 - - - - - - -
26/12:30pm 29.2 NE 13 16 1015.0 - 0.0 - - - - - - -
26/12:00pm 29.5 ENE 15 19 1015.3 - 0.0 - - - - - - -
26/11:30am 30.2 ENE 18 22 1015.2 - 0.0 - - - - - - -
26/11:00am 28.7 ENE 16 20 1015.7 - 0.0 - - - - - - -
26/10:30am 28.9 ENE 14 17 1016.0 - 0.0 - - - - - - -
26/10:00am 28.8 ENE 15 19 1016.5 - 0.0 - - - - - - -
26/09:30am 28.4 E 16 19 1016.1 - 0.0 - - - - - - -
26/09:00am 26.2 ENE 12 15 1016.2 - 0.0 - - - - - - -
26/08:30am 25.3 E 9 11 1016.2 - 0.0 - - - - - - -
26/08:00am 24.8 ESE 7 9 1015.6 - 0.0 - - - - - - -
26/07:30am 24.3 E 8 10 1015.3 - 0.0 - - - - - - -
26/07:00am 23.8 ESE 8 9 1015.0 - 0.0 - - - - - - -
26/06:30am 24.1 E 11 16 1014.8 - 0.0 - - - - - - -
26/06:00am 24.1 E 12 13 1014.6 - 0.0 - - - - - - -
26/05:30am 24.2 E 10 11 1014.5 - 0.0 - - - - - - -
26/05:00am 24.0 ESE 9 10 1014.4 - 0.0 - - - - - - -
26/04:30am 24.3 E 9 11 1014.4 - 0.0 - - - - - - -
26/04:00am 24.0 E 9 10 1014.3 - 0.0 - - - - - - -
26/03:30am 24.2 E 9 11 1014.2 - 0.0 - - - - - - -
26/03:00am 24.4 ENE 9 11 1014.3 - 0.0 - - - - - - -
26/02:30am 24.4 NE 10 12 1014.4 - 0.0 - - - - - - -
26/02:00am 24.8 ENE 11 14 1014.5 - 0.0 - - - - - - -
26/01:30am 24.8 ENE 11 14 1014.7 - 0.0 - - - - - - -
26/01:00am 24.9 ENE 11 13 1014.8 - 0.0 - - - - - - -
26/12:30am 24.9 E 10 12 1014.9 - 0.0 - - - - - - -
26/12:00am 25.1 E 9 11 1015.2 - 0.0 - - - - - - -
 
Date/Time
WST
Temp

°C
Wind Pressure Rain
since 9am
mm
Weather Cloud Vis
km
Sea
Height
m
Swell
Dir
 
Speed
knots
Gust
knots
hPa Trend Height
m
Period
s
Dir
25/11:30pm 25.0 ESE 7 8 1015.3 - 0.0 - - - - - - -
25/11:00pm 24.7 E 5 6 1015.2 - 0.0 - - - - - - -
25/10:30pm 24.8 NE 6 7 1015.0 - 0.0 - - - - - - -
25/10:00pm 25.5 NE 8 10 1015.0 - 0.0 - - - - - - -
25/09:30pm 25.6 NE 8 11 1015.0 - 0.0 - - - - - - -
25/09:00pm 25.7 NNE 10 12 1015.0 - 0.0 - - - - - - -
25/08:30pm 25.8 NNE 10 12 1014.8 - 0.0 - - - - - - -
25/08:00pm 25.9 NNE 9 11 1014.4 - 0.0 - - - - - - -
25/07:30pm 25.9 NNE 9 12 1014.0 - 0.0 - - - - - - -
25/07:00pm 25.8 NNE 9 11 1013.6 - 0.0 - - - - - - -
25/06:30pm 26.3 NNE 10 13 1013.3 - 0.0 - - - - - - -
25/06:00pm 26.5 NNE 10 13 1013.1 - 0.0 - - - - - - -
25/05:30pm 27.0 NNE 10 15 1012.8 - 0.0 - - - - - - -
25/05:00pm 27.1 NNE 11 14 1012.8 - 0.0 - - - - - - -
25/04:30pm 27.6 NNE 11 15 1012.6 - 0.0 - - - - - - -
25/04:00pm 27.9 N 13 16 1012.6 - 0.0 - - - - - - -
25/03:30pm 28.7 NNE 12 15 1012.4 - 0.0 - - - - - - -
25/03:00pm 29.4 NNE 13 17 1012.3 - 0.0 - - - - - - -
25/02:30pm 28.9 NNE 11 15 1012.2 - 0.0 - - - - - - -
25/02:00pm 29.5 NNE 12 17 1012.5 - 0.0 - - - - - - -
25/01:30pm 29.4 NNE 15 18 1012.7 - 0.0 - - - - - - -
25/01:00pm 31.1 NNE 15 22 1012.7 - 0.0 - - - - - - -
25/12:30pm 31.0 ENE 17 22 1013.1 - 0.0 - - - - - - -
25/12:00pm 30.6 NE 16 21 1013.5 - 0.0 - - - - - - -
25/11:30am 29.8 ENE 18 22 1013.9 - 0.0 - - - - - - -
25/11:00am 29.3 E 16 18 1014.2 - 0.0 - - - - - - -
25/10:30am 28.6 E 15 17 1014.6 - 0.0 - - - - - - -
25/10:00am 27.8 E 17 21 1015.0 - 0.0 - - - - - - -
25/09:30am 26.4 ENE 17 22 1015.2 - 0.0 - - - - - - -
25/09:00am 26.2 E 17 21 1015.1 - 0.0 - - - - - - -
25/08:30am 25.4 E 18 22 1014.9 - 0.0 - - - - - - -
25/08:00am 25.2 E 16 19 1014.7 - 0.0 - - - - - - -
25/07:30am 23.8 E 12 16 1014.4 - 0.0 - - - - - - -
25/07:00am 23.2 E 9 11 1014.0 - 0.0 - - - - - - -
25/06:30am 22.3 ESE 8 9 1013.6 - 0.0 - - - - - - -
25/06:00am 22.4 SE 7 8 1013.1 - 0.0 - - - - - - -
25/05:30am 22.1 SE 7 9 1012.9 - 0.0 - - - - - - -
25/05:00am 22.9 ESE 7 8 1012.9 - 0.0 - - - - - - -
25/04:30am 22.7 E 6 6 1012.8 - 0.0 - - - - - - -
25/04:00am 22.6 E 6 7 1012.8 - 0.0 - - - - - - -
25/03:30am 23.0 E 7 8 1012.8 - 0.0 - - - - - - -
25/03:00am 23.0 E 8 9 1012.9 - 0.0 - - - - - - -
25/02:30am 23.5 E 10 11 1013.1 - 0.0 - - - - - - -
25/02:00am 23.8 ENE 10 13 1013.2 - 0.0 - - - - - - -
25/01:30am 23.7 E 9 11 1013.4 - 0.0 - - - - - - -
25/01:00am 23.2 E 8 10 1013.6 - 0.0 - - - - - - -
25/12:30am 23.6 E 11 13 1013.6 - 0.0 - - - - - - -
25/12:00am 24.1 E 13 15 1013.7 - 0.0 - - - - - - -
 
Date/Time
WST
Temp

°C
Wind Pressure Rain
since 9am
mm
Weather Cloud Vis
km
Sea
Height
m
Swell
Dir
 
Speed
knots
Gust
knots
hPa Trend Height
m
Period
s
Dir
24/11:30pm 23.6 ENE 10 13 1013.9 - 0.0 - - - - - - -
24/11:00pm 23.7 ENE 9 11 1014.1 - 0.0 - - - - - - -
24/10:30pm 23.9 ENE 8 10 1014.1 - 0.0 - - - - - - -
24/10:00pm 23.8 NE 4 5 1014.2 - 0.0 - - - - - - -
24/09:30pm 23.7 ENE 3 4 1014.1 - 0.0 - - - - - - -
24/09:00pm 24.4 NNE 3 4 1014.0 - 0.0 - - - - - - -
24/08:30pm 23.9 NNE 3 4 1013.8 - 0.0 - - - - - - -
24/08:00pm 23.9 N 4 5 1013.5 - 0.0 - - - - - - -
24/07:30pm 24.9 NNW 1 4 1013.1 - 0.0 - - - - - - -
24/07:00pm 24.4 CALM 0 0 1012.9 - 0.0 - - - - - - -
24/06:30pm 24.9 NNW 3 4 1012.7 - 0.0 - - - - - - -
24/06:00pm 25.5 NNW 3 4 1012.3 - 0.0 - - - - - - -
24/05:30pm 26.5 NNW 5 7 1012.2 - 0.0 - - - - - - -
24/05:00pm 27.3 NNW 7 8 1012.1 - 0.0 - - - - - - -
24/04:30pm 27.2 NW 7 8 1012.1 - 0.0 - - - - - - -
24/04:00pm 28.9 S 1 4 1012.2 - 0.0 - - - - - - -
24/03:30pm 28.6 E 4 5 1012.3 - 0.0 - - - - - - -
24/03:00pm 28.5 NNE 5 7 1012.3 - 0.0 - - - - - - -
24/02:30pm 27.7 N 7 8 1012.4 - 0.0 - - - - - - -
24/02:00pm 28.4 ENE 7 8 1012.5 - 0.0 - - - - - - -

Other Formats:

Comma delimited format used in spreadsheet applications
http://www.bom.gov.au/fwo/IDW60701/IDW60701.95305.axf

JavaScript Object Notation format (JSON) in row-major order
http://www.bom.gov.au/fwo/IDW60701/IDW60701.95305.json